Chernjaevo, Russia
Current Conditions -  °F | °C
As of 7:00 PM on Thursday 23 Oct 2014 (Local Time) from UHBB Reporting Station
Clear Clear  
Wind Chill: 32°   Ceiling: Unl
Heat Index: 37°   Visibility: 6mi
Dew Point: 23°   Wind: 7mph
Humidity: 56%   Direction: 130°SE
Pressure: 29.77"   Gusts: NA
Location:  52.78°N, 126°E
Report Text: UHBB 231000Z 13003MPS CAVOK 03/M05 Q1008 NOSIG RMK QFE740/098718090060
Loading
Personal Weather Stations






























Interactive Weather Map
Tropical Storm Tracking
New forecast layout! Learn more

10-Day Weather Forecast

Advertisements
Track Severe Weather on mobile